createdAt,value
2023-03-10T08:55:17.147Z,97653.47
2023-03-10T08:56:49.554Z,97658.97
2023-03-10T08:58:21.626Z,97646.81
2023-03-10T08:59:53.362Z,97642.63
2023-03-10T09:01:33.869Z,97647.63
2023-03-10T09:03:05.657Z,97642.59
2023-03-10T09:04:37.439Z,97636.38
2023-03-10T09:06:09.570Z,97640.41
2023-03-10T09:07:41.377Z,97632.13
2023-03-10T09:09:13.257Z,97636.47
2023-03-10T09:10:45.668Z,97638.78
2023-03-10T09:12:17.522Z,97641.97
2023-03-10T09:13:49.430Z,97625.16
2023-03-10T09:15:22.174Z,97640.28
2023-03-10T09:16:53.982Z,97642.09
2023-03-10T09:18:26.015Z,97623.94
2023-03-10T09:19:57.723Z,97637.81
2023-03-10T09:21:33.442Z,97635.59
2023-03-10T09:23:06.335Z,97637.97
2023-03-10T09:24:38.050Z,97628.03
2023-03-10T09:26:10.120Z,97633.72
2023-03-10T09:27:41.828Z,97647.91
2023-03-10T09:29:13.519Z,97645.00
2023-03-10T09:30:45.612Z,97664.63
2023-03-10T09:32:17.608Z,97659.66
2023-03-10T09:33:49.941Z,97655.91
2023-03-10T09:35:21.915Z,97657.38
2023-03-10T09:36:53.919Z,97659.91
2023-03-10T09:38:26.134Z,97659.06
2023-03-10T09:39:58.218Z,97659.50
2023-03-10T09:42:05.574Z,97656.56
2023-03-10T09:43:41.620Z,97661.78
2023-03-10T09:45:20.541Z,97654.50
2023-03-10T09:47:02.005Z,97662.38
2023-03-10T09:48:49.722Z,97642.81
2023-03-10T09:50:27.297Z,97650.72
2023-03-10T09:52:08.083Z,97641.34
2023-03-10T09:54:09.728Z,97646.50
2023-03-10T09:55:47.749Z,97626.81
2023-03-10T09:57:22.983Z,97645.06
2023-03-10T09:58:59.979Z,97637.22
2023-03-10T10:00:38.853Z,97634.78
2023-03-10T10:02:20.285Z,97630.41
2023-03-10T10:03:54.990Z,97631.91
2023-03-10T10:05:32.941Z,97650.53
2023-03-10T10:07:14.193Z,97638.19
2023-03-10T10:09:03.495Z,97640.06
2023-03-10T10:10:37.170Z,97643.78
2023-03-10T10:12:23.551Z,97646.72
2023-03-10T10:14:27.949Z,97650.69
2023-03-10T10:16:35.924Z,97642.94
2023-03-10T10:18:21.907Z,97641.06
2023-03-10T10:19:55.027Z,97643.69
2023-03-10T10:21:43.365Z,97644.31
2023-03-10T10:23:25.153Z,97638.41
2023-03-10T10:25:09.884Z,97646.78
2023-03-10T10:26:41.625Z,97644.53
2023-03-10T10:28:26.908Z,97641.06
2023-03-10T10:29:58.745Z,97647.81
2023-03-10T10:31:33.424Z,97645.56
2023-03-10T10:33:12.211Z,97646.84
2023-03-10T10:34:46.317Z,97643.69
2023-03-10T10:36:18.586Z,97645.69
2023-03-10T10:38:00.163Z,97657.75
2023-03-10T10:39:33.168Z,97654.81
2023-03-10T10:41:15.728Z,97656.75
2023-03-10T10:43:00.884Z,97651.94
2023-03-10T10:44:43.617Z,97642.94
2023-03-10T10:46:23.104Z,97640.78
2023-03-10T10:47:55.896Z,97639.50
2023-03-10T10:49:29.583Z,97646.03
2023-03-10T10:51:01.312Z,97633.22
2023-03-10T10:52:33.600Z,97630.75
2023-03-10T10:54:28.409Z,97641.75
2023-03-10T10:56:06.253Z,97651.78
2023-03-10T10:57:38.892Z,97658.91
2023-03-10T10:59:21.420Z,97656.84
2023-03-10T11:01:05.499Z,97661.56
2023-03-10T11:02:37.393Z,97662.00
2023-03-10T11:04:12.621Z,97654.56
2023-03-10T11:05:44.358Z,97656.66
2023-03-10T11:07:24.091Z,97653.34
2023-03-10T11:09:12.809Z,97655.94
2023-03-10T11:10:51.654Z,97652.16
2023-03-10T11:12:34.834Z,97648.25
2023-03-10T11:14:21.264Z,97652.25
2023-03-10T11:16:14.193Z,97646.06
2023-03-10T11:18:20.314Z,97644.25
2023-03-10T11:20:30.291Z,97637.34
2023-03-10T11:22:17.512Z,97630.56
2023-03-10T11:24:13.190Z,97636.09
2023-03-10T11:25:52.618Z,97633.72
2023-03-10T11:27:27.650Z,97631.78
2023-03-10T11:29:15.970Z,97625.66
2023-03-10T11:31:07.240Z,97619.06
2023-03-10T11:32:59.262Z,97623.38
2023-03-10T11:34:35.599Z,97620.47
2023-03-10T11:36:43.241Z,97616.41
2023-03-10T11:38:44.983Z,97617.31
2023-03-10T11:40:27.290Z,97619.78
2023-03-10T11:42:16.339Z,97618.97
2023-03-10T11:43:54.508Z,97609.75
2023-03-10T11:45:55.567Z,97601.78
2023-03-10T11:47:42.265Z,97610.91
2023-03-10T11:49:16.470Z,97612.50
2023-03-10T11:50:53.095Z,97615.97
2023-03-10T11:52:27.534Z,97575.41
2023-03-10T11:54:01.713Z,97590.19
2023-03-10T11:55:34.020Z,97581.72
2023-03-10T11:57:15.378Z,97585.31
2023-03-10T11:58:55.563Z,97581.41
2023-03-10T12:00:43.049Z,97580.81
2023-03-10T12:02:25.012Z,97572.38
2023-03-10T12:04:13.063Z,97574.31
2023-03-10T12:06:05.694Z,97570.56
2023-03-10T12:07:40.733Z,97577.13
2023-03-10T12:09:33.554Z,97559.97
2023-03-10T12:11:10.771Z,97572.78
2023-03-10T12:12:45.298Z,97564.47
2023-03-10T12:14:17.118Z,97576.50
2023-03-10T12:15:50.385Z,97569.13
2023-03-10T12:17:22.424Z,97564.97
2023-03-10T12:18:54.634Z,97568.38
2023-03-10T12:20:31.433Z,97567.63
2023-03-10T12:22:21.188Z,97566.19
2023-03-10T12:23:55.677Z,97560.03
2023-03-10T12:25:30.498Z,97562.66
2023-03-10T12:27:04.419Z,97568.25
2023-03-10T12:28:36.380Z,97565.59
2023-03-10T12:30:48.717Z,97561.38
2023-03-10T12:32:41.918Z,97563.03
2023-03-10T12:34:22.407Z,97557.38
2023-03-10T12:36:01.398Z,97552.78
2023-03-10T12:37:33.704Z,97558.34
2023-03-10T12:39:26.664Z,97562.28
2023-03-10T12:41:01.051Z,97557.06
2023-03-10T12:42:37.334Z,97559.41
2023-03-10T12:44:46.611Z,97557.44
2023-03-10T12:46:49.852Z,97560.94
2023-03-10T12:48:23.141Z,97555.41
2023-03-10T12:50:04.880Z,97549.91
2023-03-10T12:51:43.199Z,97555.69
2023-03-10T12:53:36.014Z,97551.63
2023-03-10T12:55:18.836Z,97553.78
2023-03-10T12:57:25.089Z,97548.06
2023-03-10T12:59:26.328Z,97544.00
2023-03-10T13:01:02.175Z,97544.88
2023-03-10T13:02:47.972Z,97544.13
2023-03-10T13:04:22.021Z,97549.44
2023-03-10T13:06:03.710Z,97547.63
2023-03-10T13:07:35.839Z,97541.78
2023-03-10T13:09:24.716Z,97536.41
2023-03-10T13:10:59.112Z,97533.84
2023-03-10T13:12:44.988Z,97529.47
2023-03-10T13:14:19.902Z,97520.47
2023-03-10T13:16:00.249Z,97523.31
2023-03-10T13:17:33.325Z,97517.38
2023-03-10T13:19:05.798Z,97505.97
2023-03-10T13:20:38.385Z,97507.13
2023-03-10T13:22:17.008Z,97508.22
2023-03-10T13:23:48.774Z,97500.97
2023-03-10T13:25:20.558Z,97502.91
2023-03-10T13:27:13.272Z,97490.91
2023-03-10T13:29:02.958Z,97497.22
2023-03-10T13:30:34.797Z,97488.50
2023-03-10T13:32:08.267Z,97489.81
2023-03-10T13:33:52.254Z,97485.91
2023-03-10T13:35:24.907Z,97490.56
2023-03-10T13:37:07.374Z,97487.38
2023-03-10T13:38:42.680Z,97484.53
2023-03-10T13:40:16.599Z,97486.34
2023-03-10T13:41:51.345Z,97478.28
2023-03-10T13:43:37.956Z,97481.94
2023-03-10T13:45:36.150Z,97485.28
2023-03-10T13:47:20.656Z,97487.28
2023-03-10T13:48:53.220Z,97480.19
2023-03-10T13:50:25.075Z,97481.47
2023-03-10T13:52:06.119Z,97483.25
2023-03-10T13:53:37.834Z,97481.00
2023-03-10T13:55:17.199Z,97481.94
2023-03-10T13:56:52.251Z,97481.00
2023-03-10T13:58:26.252Z,97485.47
2023-03-10T13:59:58.656Z,97476.59
2023-03-10T14:01:33.462Z,97474.22
2023-03-10T14:03:08.561Z,97473.50
2023-03-10T14:04:50.936Z,97463.81
2023-03-10T14:06:23.283Z,97458.69
2023-03-10T14:07:59.758Z,97461.94
2023-03-10T14:09:31.480Z,97452.44
2023-03-10T14:11:22.077Z,97453.97
2023-03-10T14:12:54.981Z,97453.19
2023-03-10T14:14:30.663Z,97452.72
2023-03-10T14:16:02.397Z,97460.56
2023-03-10T14:17:38.697Z,97459.69
2023-03-10T14:19:11.371Z,97468.94
2023-03-10T14:20:47.538Z,97469.91
2023-03-10T14:22:28.468Z,97487.19
2023-03-10T14:24:11.770Z,97523.25
2023-03-10T14:25:43.587Z,97577.38
2023-03-10T14:27:15.882Z,97572.75
2023-03-10T14:28:47.946Z,97586.88
2023-03-10T14:30:28.943Z,97569.28
2023-03-10T14:32:00.881Z,97570.66
2023-03-10T14:33:32.530Z,97565.75
2023-03-10T14:35:10.016Z,97564.34
2023-03-10T14:36:41.802Z,97566.28
2023-03-10T14:38:13.893Z,97561.69
2023-03-10T14:39:45.668Z,97564.16
2023-03-10T14:41:20.100Z,97564.91
2023-03-10T14:42:54.071Z,97557.13
2023-03-10T14:44:27.182Z,97548.06
2023-03-10T14:46:01.487Z,97550.38
2023-03-10T14:47:34.373Z,97551.91
2023-03-10T14:49:12.848Z,97552.16
2023-03-10T14:50:46.284Z,97550.97
2023-03-10T14:52:18.307Z,97545.38
2023-03-10T14:53:50.078Z,97547.66
2023-03-10T14:55:21.961Z,97555.78
2023-03-10T14:56:59.294Z,97559.56
2023-03-10T14:58:34.723Z,97553.84
2023-03-10T15:00:20.961Z,97556.09
2023-03-10T15:01:52.781Z,97553.31
2023-03-10T15:03:24.594Z,97548.59
2023-03-10T15:04:56.422Z,97547.88
2023-03-10T15:06:28.174Z,97541.72
2023-03-10T15:07:59.912Z,97548.88
2023-03-10T15:09:31.660Z,97549.59
2023-03-10T15:11:03.461Z,97551.16
2023-03-10T15:12:35.405Z,97546.34
2023-03-10T15:14:19.453Z,97547.09
2023-03-10T15:15:51.800Z,97544.88
2023-03-10T15:17:23.708Z,97545.31
2023-03-10T15:18:55.426Z,97541.91
2023-03-10T15:20:27.638Z,97539.97
2023-03-10T15:21:59.497Z,97536.84
2023-03-10T15:23:31.723Z,97536.19
2023-03-10T15:25:04.657Z,97532.81
2023-03-10T15:26:36.366Z,97533.81
2023-03-10T15:28:08.089Z,97530.28
2023-03-10T15:29:39.797Z,97527.50
2023-03-10T15:31:11.586Z,97531.16
2023-03-10T15:32:43.450Z,97530.69
2023-03-10T15:34:15.328Z,97530.16
2023-03-10T15:35:47.262Z,97529.69
2023-03-10T15:37:18.974Z,97526.44
2023-03-10T15:38:52.535Z,97526.94
2023-03-10T15:40:26.747Z,97523.34
2023-03-10T15:41:58.454Z,97525.69
2023-03-10T15:43:30.500Z,97518.91
2023-03-10T15:45:06.184Z,97514.38
2023-03-10T15:46:39.113Z,97509.66
2023-03-10T15:48:10.945Z,97511.38
2023-03-10T15:49:42.697Z,97508.09
2023-03-10T15:51:17.615Z,97508.50
2023-03-10T15:52:54.235Z,97506.25
2023-03-10T15:54:25.962Z,97501.06
2023-03-10T15:55:57.714Z,97507.53
2023-03-10T15:57:29.418Z,97500.31
2023-03-10T15:59:01.130Z,97496.41
2023-03-10T16:00:32.971Z,97497.91
2023-03-10T16:02:04.789Z,97500.88
2023-03-10T16:03:37.426Z,97504.59
2023-03-10T16:05:09.559Z,97502.97
2023-03-10T16:06:41.277Z,97496.75
2023-03-10T16:08:13.033Z,97498.47
2023-03-10T16:09:44.707Z,97492.44
2023-03-10T16:11:18.946Z,97502.63
2023-03-10T16:12:50.991Z,97501.59
2023-03-10T16:14:25.296Z,97503.66
2023-03-10T16:15:58.459Z,97500.38
2023-03-10T16:17:30.423Z,97500.97
2023-03-10T16:19:02.808Z,97502.63
2023-03-10T16:20:34.811Z,97500.94
2023-03-10T16:22:07.368Z,97502.00
2023-03-10T16:23:39.744Z,97502.19
2023-03-10T16:25:17.603Z,97495.31
2023-03-10T16:26:49.297Z,97497.81
2023-03-10T16:28:20.999Z,97506.75
2023-03-10T16:29:52.713Z,97493.00
2023-03-10T16:31:27.107Z,97505.47
2023-03-10T16:33:00.896Z,97496.50
2023-03-10T16:34:32.745Z,97497.53
2023-03-10T16:36:08.010Z,97493.34
2023-03-10T16:37:39.931Z,97505.38
2023-03-10T16:39:12.914Z,97500.34
2023-03-10T16:40:50.792Z,97508.16
2023-03-10T16:42:24.194Z,97502.94
2023-03-10T16:43:55.904Z,97510.13
2023-03-10T16:45:27.822Z,97500.09
2023-03-10T16:46:59.568Z,97500.47
2023-03-10T16:48:31.403Z,97506.59
2023-03-10T16:50:03.132Z,97494.69
2023-03-10T16:51:38.182Z,97507.69
2023-03-10T16:53:09.873Z,97502.19
2023-03-10T16:54:41.688Z,97502.75
2023-03-10T16:56:13.512Z,97497.00
2023-03-10T16:57:46.054Z,97504.75
2023-03-10T16:59:21.454Z,97502.59
2023-03-10T17:00:53.217Z,97487.97
2023-03-10T17:02:24.958Z,97490.16
2023-03-10T17:03:57.467Z,97495.84
2023-03-10T17:05:29.228Z,97498.00
2023-03-10T17:07:00.945Z,97498.31
2023-03-10T17:08:32.708Z,97497.78
2023-03-10T17:10:05.088Z,97493.53
2023-03-10T17:11:40.283Z,97496.31
2023-03-10T17:13:11.976Z,97498.25
2023-03-10T17:14:44.190Z,97502.72
2023-03-10T17:16:18.039Z,97504.28
2023-03-10T17:17:49.783Z,97498.81
2023-03-10T17:19:28.858Z,97508.81
2023-03-10T17:21:12.292Z,97509.53
2023-03-10T17:22:44.461Z,97502.03
2023-03-10T17:24:18.557Z,97498.88
2023-03-10T17:25:50.493Z,97505.81
2023-03-10T17:27:22.705Z,97501.00
2023-03-10T17:28:55.175Z,97503.59
2023-03-10T17:30:27.111Z,97506.81
2023-03-10T17:31:58.943Z,97497.63
2023-03-10T17:33:30.688Z,97507.06
2023-03-10T17:35:03.842Z,97504.13
2023-03-10T17:36:35.618Z,97504.84
2023-03-10T17:38:07.341Z,97503.50
2023-03-10T17:39:40.740Z,97505.09
2023-03-10T17:41:15.841Z,97497.75
2023-03-10T17:42:47.542Z,97500.78
2023-03-10T17:44:19.291Z,97495.13
2023-03-10T17:46:02.127Z,97490.66
2023-03-10T17:47:34.553Z,97486.47
2023-03-10T17:49:06.269Z,97484.31
2023-03-10T17:50:37.962Z,97487.53
2023-03-10T17:52:09.668Z,97489.91
2023-03-10T17:53:41.419Z,97492.28
2023-03-10T17:55:13.239Z,97490.97
2023-03-10T17:56:45.274Z,97495.88
2023-03-10T17:58:16.985Z,97487.34
2023-03-10T17:59:48.819Z,97497.75
2023-03-10T18:01:27.375Z,97489.06
2023-03-10T18:02:59.405Z,97492.09
2023-03-10T18:04:31.770Z,97491.44
2023-03-10T18:06:04.799Z,97484.75
2023-03-10T18:07:37.022Z,97483.41
2023-03-10T18:09:13.382Z,97485.47
2023-03-10T18:10:45.144Z,97473.72
2023-03-10T18:12:16.876Z,97482.13
2023-03-10T18:13:49.112Z,97478.44
2023-03-10T18:15:20.840Z,97471.41
2023-03-10T18:16:52.596Z,97480.47
2023-03-10T18:18:25.268Z,97471.41
2023-03-10T18:19:57.107Z,97468.91
2023-03-10T18:21:28.938Z,97461.69
2023-03-10T18:23:01.136Z,97467.06
2023-03-10T18:24:32.900Z,97465.38
2023-03-10T18:26:09.484Z,97462.03
2023-03-10T18:27:41.236Z,97460.03
2023-03-10T18:29:14.068Z,97461.84
2023-03-10T18:30:52.126Z,97456.69
2023-03-10T18:32:26.015Z,97460.19
2023-03-10T18:33:58.915Z,97456.50
2023-03-10T18:35:30.597Z,97452.97
2023-03-10T18:37:02.367Z,97457.34
2023-03-10T18:38:34.292Z,97463.69
2023-03-10T18:40:07.015Z,97459.34
2023-03-10T18:41:38.745Z,97459.34
2023-03-10T18:43:10.543Z,97452.34
2023-03-10T18:44:46.643Z,97452.34
2023-03-10T18:46:18.593Z,97457.50
2023-03-10T18:47:50.369Z,97454.00
2023-03-10T18:49:22.089Z,97448.63
2023-03-10T18:50:55.412Z,97446.97
2023-03-10T18:52:27.182Z,97449.47
2023-03-10T18:53:58.915Z,97451.97
2023-03-10T18:55:30.692Z,97445.94
2023-03-10T18:57:02.592Z,97446.63
2023-03-10T18:58:35.014Z,97449.31
2023-03-10T19:00:08.328Z,97451.13
2023-03-10T19:01:40.090Z,97448.28
2023-03-10T19:03:13.662Z,97447.44
2023-03-10T19:04:48.415Z,97441.25
2023-03-10T19:06:20.117Z,97442.09
2023-03-10T19:07:51.810Z,97445.94
2023-03-10T19:09:24.523Z,97439.56
2023-03-10T19:10:58.333Z,97444.09
2023-03-10T19:12:30.250Z,97439.75
2023-03-10T19:14:05.511Z,97440.59
2023-03-10T19:15:37.741Z,97434.75
2023-03-10T19:17:09.540Z,97439.09
2023-03-10T19:18:41.271Z,97432.06
2023-03-10T19:20:14.413Z,97437.78
2023-03-10T19:21:46.170Z,97436.13
2023-03-10T19:23:18.176Z,97433.59
2023-03-10T19:24:49.867Z,97426.41
2023-03-10T19:26:21.689Z,97425.56
2023-03-10T19:27:53.424Z,97420.41
2023-03-10T19:29:25.152Z,97425.91
2023-03-10T19:30:56.973Z,97430.94
2023-03-10T19:32:28.822Z,97428.91
2023-03-10T19:34:00.754Z,97425.22
2023-03-10T19:35:32.494Z,97425.88
2023-03-10T19:37:04.435Z,97420.16
2023-03-10T19:38:37.666Z,97412.75
2023-03-10T19:40:14.754Z,97420.81
2023-03-10T19:41:46.521Z,97420.28
2023-03-10T19:43:18.228Z,97422.78
2023-03-10T19:44:49.948Z,97417.06
2023-03-10T19:46:21.905Z,97415.22
2023-03-10T19:47:54.960Z,97412.19
2023-03-10T19:49:26.767Z,97420.06
2023-03-10T19:50:59.752Z,97419.88
2023-03-10T19:52:31.818Z,97420.53
2023-03-10T19:54:04.592Z,97410.63
2023-03-10T19:55:37.157Z,97414.63
2023-03-10T19:57:13.828Z,97421.47
2023-03-10T19:58:48.689Z,97428.16
2023-03-10T20:00:25.575Z,97426.13
2023-03-10T20:02:01.678Z,97416.72
2023-03-10T20:03:34.261Z,97427.28
2023-03-10T20:05:07.250Z,97428.94
2023-03-10T20:06:38.965Z,97423.22
2023-03-10T20:08:10.827Z,97432.75
2023-03-10T20:09:42.573Z,97418.31
2023-03-10T20:11:15.040Z,97425.53
2023-03-10T20:12:51.341Z,97431.53
2023-03-10T20:14:24.538Z,97431.38
2023-03-10T20:15:56.876Z,97435.72
2023-03-10T20:17:28.708Z,97421.31
2023-03-10T20:19:00.710Z,97434.72
2023-03-10T20:20:35.138Z,97442.94
2023-03-10T20:22:09.370Z,97427.66
2023-03-10T20:23:41.235Z,97434.88
2023-03-10T20:25:17.011Z,97426.84
2023-03-10T20:26:48.809Z,97439.59
2023-03-10T20:28:20.603Z,97438.75
2023-03-10T20:29:52.361Z,97437.91
2023-03-10T20:31:24.545Z,97445.97
2023-03-10T20:32:58.462Z,97443.28
2023-03-10T20:34:30.808Z,97438.94
2023-03-10T20:36:02.551Z,97445.31
2023-03-10T20:37:38.718Z,97443.66
2023-03-10T20:39:11.103Z,97442.00
2023-03-10T20:40:43.190Z,97445.69
2023-03-10T20:42:14.900Z,97445.19
2023-03-10T20:43:46.879Z,97442.50
2023-03-10T20:45:18.784Z,97437.13
2023-03-10T20:46:50.648Z,97441.88
2023-03-10T20:48:22.360Z,97449.25
2023-03-10T20:49:54.399Z,97446.75
2023-03-10T20:51:26.149Z,97443.59
2023-03-10T20:52:57.869Z,97457.38
2023-03-10T20:54:29.733Z,97446.16
2023-03-10T20:56:01.612Z,97459.75
2023-03-10T20:57:34.485Z,97455.56
2023-03-10T20:59:06.218Z,97461.28
2023-03-10T21:00:38.752Z,97453.78
2023-03-10T21:02:15.737Z,97470.22
2023-03-10T21:03:47.715Z,97471.41
2023-03-10T21:05:21.085Z,97471.75
2023-03-10T21:06:52.767Z,97471.94
2023-03-10T21:08:24.627Z,97475.97
2023-03-10T21:09:58.117Z,97466.59
2023-03-10T21:11:29.847Z,97469.63
2023-03-10T21:13:01.557Z,97464.81
2023-03-10T21:14:33.339Z,97467.16
2023-03-10T21:16:05.130Z,97474.56
2023-03-10T21:17:37.117Z,97460.69
2023-03-10T21:19:10.481Z,97470.25
2023-03-10T21:20:42.210Z,97467.25
2023-03-10T21:22:13.929Z,97471.28
2023-03-10T21:23:45.709Z,97470.94
2023-03-10T21:25:20.874Z,97465.09
2023-03-10T21:26:52.613Z,97466.66
2023-03-10T21:28:24.358Z,97469.69
2023-03-10T21:29:56.144Z,97472.84
2023-03-10T21:31:27.984Z,97472.72
2023-03-10T21:33:00.110Z,97471.88
2023-03-10T21:34:32.082Z,97467.69
2023-03-10T21:36:04.258Z,97474.41
2023-03-10T21:37:38.406Z,97474.03
2023-03-10T21:39:11.315Z,97470.72
2023-03-10T21:40:43.088Z,97464.03
2023-03-10T21:42:15.426Z,97476.75
2023-03-10T21:43:48.030Z,97474.41
2023-03-10T21:45:23.182Z,97475.75
2023-03-10T21:46:54.911Z,97487.63
2023-03-10T21:48:27.012Z,97480.63
2023-03-10T21:49:58.769Z,97476.44
2023-03-10T21:51:33.908Z,97476.78
2023-03-10T21:53:05.879Z,97468.06
2023-03-10T21:54:37.622Z,97473.75
2023-03-10T21:56:09.785Z,97465.91
2023-03-10T21:57:41.527Z,97471.41
2023-03-10T21:59:13.573Z,97480.44
2023-03-10T22:00:45.357Z,97472.75
2023-03-10T22:02:26.203Z,97465.75
2023-03-10T22:03:58.104Z,97471.09
2023-03-10T22:05:29.885Z,97474.94
2023-03-10T22:07:02.837Z,97471.25
2023-03-10T22:08:36.471Z,97466.91
2023-03-10T22:10:09.677Z,97484.97
2023-03-10T22:11:41.424Z,97473.44
2023-03-10T22:13:13.647Z,97478.78
2023-03-10T22:14:45.800Z,97471.78
2023-03-10T22:16:17.832Z,97471.78
2023-03-10T22:17:50.503Z,97487.13
2023-03-10T22:19:22.224Z,97487.13
2023-03-10T22:20:53.952Z,97481.13
2023-03-10T22:22:25.670Z,97484.78
2023-03-10T22:23:57.500Z,97477.97
2023-03-10T22:25:29.279Z,97485.13
2023-03-10T22:27:01.305Z,97492.50
2023-03-10T22:28:33.113Z,97482.97
2023-03-10T22:30:05.327Z,97495.66
2023-03-10T22:31:37.086Z,97485.81
2023-03-10T22:33:09.151Z,97493.31
2023-03-10T22:34:41.967Z,97490.16
2023-03-10T22:36:13.896Z,97479.78
2023-03-10T22:37:45.732Z,97483.66
2023-03-10T22:39:18.393Z,97489.97
2023-03-10T22:40:50.151Z,97484.81
2023-03-10T22:42:21.883Z,97488.81
2023-03-10T22:43:57.392Z,97487.44
2023-03-10T22:45:31.961Z,97491.31
2023-03-10T22:47:04.497Z,97485.44
2023-03-10T22:48:36.288Z,97498.16
2023-03-10T22:50:09.109Z,97492.13
2023-03-10T22:51:40.973Z,97498.63
2023-03-10T22:53:15.673Z,97502.50
2023-03-10T22:54:47.380Z,97504.47
2023-03-10T22:56:19.212Z,97507.34
2023-03-10T22:57:51.900Z,97504.97
2023-03-10T22:59:23.699Z,97505.13
2023-03-10T23:00:55.400Z,97504.44
2023-03-10T23:02:27.208Z,97503.94
2023-03-10T23:03:59.343Z,97498.09
2023-03-10T23:05:31.389Z,97501.91
2023-03-10T23:07:03.116Z,97505.78
2023-03-10T23:08:37.608Z,97505.25
2023-03-10T23:10:30.818Z,97504.38
2023-03-10T23:12:02.689Z,97503.22
2023-03-10T23:13:34.398Z,97502.72
2023-03-10T23:15:15.399Z,97504.72
2023-03-10T23:16:54.345Z,97506.69
2023-03-10T23:18:26.099Z,97510.53
2023-03-10T23:19:59.111Z,97518.88
2023-03-10T23:21:31.245Z,97515.34
2023-03-10T23:23:05.002Z,97515.69
2023-03-10T23:24:36.794Z,97524.84
2023-03-10T23:26:08.479Z,97538.34
2023-03-10T23:27:40.255Z,97550.03
2023-03-10T23:29:12.003Z,97572.75
2023-03-10T23:30:45.850Z,97581.03
2023-03-10T23:32:17.663Z,97618.56
2023-03-10T23:33:49.645Z,97611.88
2023-03-10T23:35:25.221Z,97631.19
2023-03-10T23:36:58.324Z,97624.94
2023-03-10T23:38:30.409Z,97634.72
2023-03-10T23:40:03.208Z,97675.16
2023-03-10T23:41:34.902Z,97674.72
2023-03-10T23:43:08.111Z,97659.06
2023-03-10T23:44:39.849Z,97655.94
2023-03-10T23:46:11.616Z,97684.81
2023-03-10T23:47:44.095Z,97685.84
2023-03-10T23:49:15.863Z,97688.16
2023-03-10T23:50:48.430Z,97689.50
2023-03-10T23:52:20.156Z,97687.00
2023-03-10T23:53:51.999Z,97675.69
2023-03-10T23:55:30.195Z,97691.31
2023-03-10T23:57:02.104Z,97694.13
2023-03-10T23:58:34.048Z,97703.94
